Colchester, New York
Current Conditions -  °F | °C
As of 7:35 AM on Monday 24 Nov 2014 (Local Time) from KMSV Reporting Station
Overcast Overcast  
Wind Chill: 55°   Ceiling: 1600
Heat Index: 55°   Visibility: 10mi
Dew Point: 55°   Wind: 14mph
Humidity: 100%   Direction: 190°S
Pressure: 29.63"   Gusts: 20mph
Location:  42.1536°N, 75.1637°W
Report Text: KMSV 241235Z AUTO 19012G17KT 10SM SCT006 OVC016 13/13 A2963 RMK AO1
Loading
Personal Weather Stations






























Interactive Weather Map New forecast layout! Learn more

10-Day Weather Forecast

Advertisements
Track Severe Weather on mobile